Time;durP1;ratioP1;P1;durP2;ratioP2;P2;SDS_P1;SDS_P2;PMS_P1;PMS_P2;Temp;Humidity;BMP_temperature;BMP_pressure;BME280_temperature;BME280_humidity;BME280_pressure;Samples;Min_cycle;Max_cycle;Signal;HPM_P1;HPM_P2
2023/12/18 00:00:35;;;;;;;3.30;2.80;;;7.50;99.90;;;;;;5027183;28;20638;-55
2023/12/18 00:03:01;;;;;;;2.90;2.70;;;7.50;99.90;;;;;;5032315;28;20206;-61
2023/12/18 00:05:26;;;;;;;2.87;2.67;;;7.50;99.90;;;;;;5009969;28;20191;-54
2023/12/18 00:07:52;;;;;;;4.67;2.83;;;7.50;99.90;;;;;;5026045;28;20203;-54
2023/12/18 00:10:17;;;;;;;3.47;3.07;;;7.50;99.90;;;;;;5026746;28;20848;-54
2023/12/18 00:12:43;;;;;;;3.37;2.90;;;7.40;99.90;;;;;;5029579;28;20194;-62
2023/12/18 00:15:09;;;;;;;3.37;2.90;;;7.40;99.90;;;;;;5026992;28;20651;-54
2023/12/18 00:17:34;;;;;;;3.17;2.87;;;7.30;99.90;;;;;;5032528;28;20213;-55
2023/12/18 00:20:00;;;;;;;3.17;2.87;;;7.40;99.90;;;;;;5034004;28;20199;-55
2023/12/18 00:22:25;;;;;;;4.00;2.80;;;7.50;99.90;;;;;;5032043;28;20238;-55
2023/12/18 00:24:51;;;;;;;3.50;3.20;;;7.30;99.90;;;;;;5028331;28;20247;-55
2023/12/18 00:27:16;;;;;;;3.77;3.37;;;7.40;99.90;;;;;;5031756;28;20199;-64
2023/12/18 00:29:42;;;;;;;3.43;3.13;;;7.40;99.90;;;;;;5029049;28;20226;-63
2023/12/18 00:32:07;;;;;;;2.77;2.57;;;7.40;99.90;;;;;;5023819;28;20697;-63
2023/12/18 00:34:33;;;;;;;3.47;3.03;;;7.30;99.90;;;;;;5029516;28;20227;-63
2023/12/18 00:36:58;;;;;;;5.77;4.93;;;7.10;99.90;;;;;;5027531;28;20252;-67
2023/12/18 00:39:24;;;;;;;2.87;2.67;;;7.20;99.90;;;;;;5027363;28;20202;-65
2023/12/18 00:41:51;;;;;;;3.57;3.03;;;7.10;99.90;;;;;;5031059;28;20672;-56
2023/12/18 00:44:16;;;;;;;6.33;3.47;;;7.30;99.90;;;;;;5025577;28;20194;-55
2023/12/18 00:46:42;;;;;;;4.37;3.03;;;7.30;99.90;;;;;;5014251;28;20197;-54
2023/12/18 00:49:08;;;;;;;3.73;3.10;;;7.30;99.90;;;;;;5007534;28;20278;-54
2023/12/18 00:51:33;;;;;;;3.23;2.93;;;7.20;99.90;;;;;;5029180;28;20673;-54
2023/12/18 00:53:59;;;;;;;3.40;3.10;;;7.20;99.90;;;;;;5027163;28;20198;-60
2023/12/18 00:56:24;;;;;;;2.90;2.70;;;7.10;99.90;;;;;;5013376;28;20380;-62
2023/12/18 00:58:50;;;;;;;2.80;2.60;;;6.90;99.90;;;;;;5030776;28;20238;-54
2023/12/18 01:01:15;;;;;;;4.30;3.67;;;6.90;99.90;;;;;;5024898;28;20234;-54
2023/12/18 01:03:41;;;;;;;3.27;2.97;;;6.80;99.90;;;;;;5029691;28;20210;-54
2023/12/18 01:06:06;;;;;;;3.27;2.93;;;6.80;99.90;;;;;;5026836;28;20199;-55
2023/12/18 01:08:32;;;;;;;4.10;3.37;;;6.80;99.90;;;;;;5027078;28;20205;-54
2023/12/18 01:10:57;;;;;;;5.30;3.30;;;6.80;99.90;;;;;;5011420;28;20541;-55
2023/12/18 01:13:23;;;;;;;3.07;2.87;;;6.80;99.90;;;;;;5029532;28;20257;-54
2023/12/18 01:15:48;;;;;;;3.23;2.90;;;7.00;99.90;;;;;;5028402;28;20237;-54
2023/12/18 01:18:14;;;;;;;3.23;2.93;;;6.90;99.90;;;;;;5027962;28;20207;-53
2023/12/18 01:20:39;;;;;;;4.17;3.10;;;6.80;99.90;;;;;;5032083;28;20206;-56
2023/12/18 01:23:05;;;;;;;6.20;3.47;;;6.80;99.90;;;;;;5031046;28;20647;-55
2023/12/18 01:25:31;;;;;;;3.37;2.73;;;7.20;99.90;;;;;;5031474;28;20202;-64
2023/12/18 01:27:57;;;;;;;5.27;3.27;;;7.00;99.90;;;;;;5030952;28;20194;-62
2023/12/18 01:30:22;;;;;;;4.73;3.57;;;6.90;99.90;;;;;;5026625;28;20245;-61
2023/12/18 01:32:48;;;;;;;3.23;2.93;;;6.80;99.90;;;;;;5026659;28;20199;-61
2023/12/18 01:35:14;;;;;;;4.13;3.37;;;6.70;99.90;;;;;;5027176;28;20235;-62
2023/12/18 01:37:40;;;;;;;3.33;3.00;;;6.90;99.90;;;;;;5023423;28;20225;-62
2023/12/18 01:40:06;;;;;;;3.83;3.43;;;7.00;99.90;;;;;;5023529;28;20191;-61
2023/12/18 01:42:32;;;;;;;3.63;3.33;;;7.10;99.90;;;;;;5026336;28;20207;-64
2023/12/18 01:44:57;;;;;;;3.43;3.23;;;6.90;99.90;;;;;;5027501;28;20206;-62
2023/12/18 01:47:23;;;;;;;3.57;3.00;;;6.90;99.90;;;;;;5023560;28;20210;-62
2023/12/18 01:49:49;;;;;;;4.57;2.77;;;6.90;99.90;;;;;;5026781;28;20195;-62
2023/12/18 01:52:15;;;;;;;3.53;3.23;;;6.80;99.90;;;;;;5025229;28;20207;-56
2023/12/18 01:54:41;;;;;;;4.03;3.73;;;6.80;99.90;;;;;;5027107;28;20203;-54
2023/12/18 01:57:07;;;;;;;4.80;3.57;;;6.80;99.90;;;;;;5025129;28;20584;-55
2023/12/18 01:59:33;;;;;;;4.33;3.93;;;6.60;99.90;;;;;;5025296;28;20290;-55
2023/12/18 02:01:59;;;;;;;6.13;4.07;;;6.60;99.90;;;;;;5028706;28;20199;-56
2023/12/18 02:04:25;;;;;;;4.50;4.07;;;6.60;99.90;;;;;;5025493;28;20658;-54
2023/12/18 02:06:51;;;;;;;4.63;3.80;;;6.70;99.90;;;;;;5033148;28;20206;-54
2023/12/18 02:09:16;;;;;;;4.73;3.50;;;6.70;99.90;;;;;;5032349;28;20757;-56
2023/12/18 02:11:45;;;;;;;4.07;3.57;;;6.80;99.90;;;;;;5032216;28;20210;-54
2023/12/18 02:14:11;;;;;;;4.20;3.80;;;6.80;99.90;;;;;;5028511;28;20207;-56
2023/12/18 02:16:37;;;;;;;3.60;3.23;;;6.70;99.90;;;;;;5031908;28;20232;-55
2023/12/18 02:19:03;;;;;;;4.17;3.77;;;6.70;99.90;;;;;;5014390;28;20282;-54
2023/12/18 02:21:28;;;;;;;4.57;4.17;;;6.70;99.90;;;;;;5010342;28;20188;-54
2023/12/18 02:23:53;;;;;;;4.40;3.87;;;6.80;99.90;;;;;;5031089;28;20214;-56
2023/12/18 02:26:19;;;;;;;5.13;4.33;;;6.80;99.90;;;;;;5030330;28;20199;-55
2023/12/18 02:28:45;;;;;;;8.43;4.53;;;6.90;99.90;;;;;;5034224;28;20234;-55
2023/12/18 02:31:14;;;;;;;6.17;3.77;;;7.00;99.90;;;;;;5014887;28;20198;-55
2023/12/18 02:33:48;;;;;;;6.23;4.10;;;7.00;99.90;;;;;;5034208;28;20202;-55
2023/12/18 02:36:13;;;;;;;8.03;4.47;;;7.00;99.90;;;;;;5030188;28;20207;-54
2023/12/18 02:38:39;;;;;;;5.20;4.70;;;7.00;99.90;;;;;;5032696;28;20198;-54
2023/12/18 02:41:04;;;;;;;5.80;5.07;;;7.00;99.90;;;;;;5012191;28;20517;-55
2023/12/18 02:43:30;;;;;;;5.37;4.50;;;7.10;99.90;;;;;;5031786;28;20264;-54
2023/12/18 02:45:55;;;;;;;5.97;5.37;;;7.10;99.90;;;;;;5028535;28;20195;-54
2023/12/18 02:48:21;;;;;;;6.17;5.20;;;7.20;99.90;;;;;;5033789;28;20214;-55
2023/12/18 02:50:46;;;;;;;8.93;5.60;;;7.20;99.90;;;;;;5016012;28;20237;-55
2023/12/18 02:53:14;;;;;;;7.17;6.10;;;7.20;99.90;;;;;;5034028;28;20728;-54
2023/12/18 02:55:40;;;;;;;10.17;7.23;;;7.20;99.90;;;;;;5034004;28;20211;-54
2023/12/18 02:58:05;;;;;;;9.57;6.93;;;7.30;99.90;;;;;;5033285;28;20195;-55
2023/12/18 03:00:31;;;;;;;13.37;7.53;;;7.20;99.90;;;;;;5016793;28;20195;-54
2023/12/18 03:02:56;;;;;;;10.67;8.07;;;7.20;99.90;;;;;;5031425;28;20605;-54
2023/12/18 03:05:22;;;;;;;12.00;7.60;;;7.20;99.90;;;;;;5033292;28;20198;-55
2023/12/18 03:07:47;;;;;;;8.97;7.40;;;7.20;99.90;;;;;;5033339;28;20278;-55
2023/12/18 03:10:13;;;;;;;15.63;8.80;;;7.20;99.90;;;;;;5032944;28;20218;-54
2023/12/18 03:12:38;;;;;;;12.03;7.83;;;7.20;99.90;;;;;;5029801;28;20191;-54
2023/12/18 03:15:04;;;;;;;11.63;8.50;;;7.20;99.90;;;;;;5026699;28;20277;-54
2023/12/18 03:17:30;;;;;;;12.13;9.30;;;7.20;99.90;;;;;;5032851;28;20306;-54
2023/12/18 03:19:55;;;;;;;13.07;9.80;;;7.20;99.90;;;;;;5033110;28;20199;-55
2023/12/18 03:22:21;;;;;;;11.77;9.70;;;7.30;99.90;;;;;;5027849;28;20221;-54
2023/12/18 03:24:46;;;;;;;13.93;10.17;;;7.30;99.90;;;;;;5029439;28;20198;-54
2023/12/18 03:27:12;;;;;;;13.77;9.90;;;7.30;99.90;;;;;;5034272;28;20210;-56
2023/12/18 03:29:37;;;;;;;12.53;9.63;;;7.30;99.90;;;;;;5010809;28;20195;-54
2023/12/18 03:32:03;;;;;;;13.77;9.73;;;7.30;99.90;;;;;;5032228;28;20209;-54
2023/12/18 03:34:30;;;;;;;13.50;9.83;;;7.30;99.90;;;;;;5032768;28;20221;-54
2023/12/18 03:36:55;;;;;;;10.33;8.90;;;7.30;99.90;;;;;;5029208;28;20264;-54
2023/12/18 03:39:21;;;;;;;13.30;8.83;;;7.30;99.90;;;;;;5033006;28;20207;-54
2023/12/18 03:41:46;;;;;;;14.30;9.63;;;7.30;99.90;;;;;;5026638;28;20195;-54
2023/12/18 03:44:12;;;;;;;14.37;10.27;;;7.20;99.90;;;;;;5031677;28;20195;-54
2023/12/18 03:46:37;;;;;;;11.83;9.30;;;7.30;99.90;;;;;;5028859;28;20206;-53
2023/12/18 03:49:02;;;;;;;12.57;8.83;;;7.20;99.90;;;;;;5033242;28;20870;-52
2023/12/18 03:51:29;;;;;;;14.17;10.43;;;7.20;99.90;;;;;;5032547;28;20198;-53
2023/12/18 03:53:54;;;;;;;13.33;10.77;;;7.20;99.90;;;;;;5018211;28;20207;-52
2023/12/18 03:56:21;;;;;;;14.87;10.33;;;7.20;99.90;;;;;;5030420;28;20206;-54
2023/12/18 03:58:46;;;;;;;13.17;9.90;;;7.20;99.90;;;;;;5016671;28;20206;-53
2023/12/18 04:01:11;;;;;;;10.73;8.93;;;7.20;99.90;;;;;;5014622;28;20199;-53
2023/12/18 04:03:37;;;;;;;13.97;9.97;;;7.30;99.90;;;;;;5014598;28;20195;-53
2023/12/18 04:06:07;;;;;;;12.97;9.60;;;7.20;99.90;;;;;;5032408;28;20206;-53
2023/12/18 04:08:33;;;;;;;10.77;8.93;;;7.20;99.90;;;;;;5028492;28;20194;-53
2023/12/18 04:10:58;;;;;;;14.93;9.87;;;7.20;99.90;;;;;;5031967;28;20207;-53
2023/12/18 04:13:24;;;;;;;11.63;9.87;;;7.20;99.90;;;;;;5026045;28;20192;-53
2023/12/18 04:15:49;;;;;;;14.20;9.77;;;7.20;99.90;;;;;;5026036;28;20882;-53
2023/12/18 04:18:15;;;;;;;15.07;10.57;;;7.20;99.90;;;;;;5027909;28;20975;-53
2023/12/18 04:20:40;;;;;;;15.37;9.67;;;7.20;99.90;;;;;;5032487;28;20222;-54
2023/12/18 04:23:06;;;;;;;12.07;9.37;;;7.20;99.90;;;;;;5031936;28;20225;-53
2023/12/18 04:25:31;;;;;;;14.00;10.83;;;7.10;99.90;;;;;;5031923;28;20190;-53
2023/12/18 04:27:57;;;;;;;12.47;10.23;;;7.10;99.90;;;;;;5027607;28;20225;-54
2023/12/18 04:30:22;;;;;;;11.93;10.33;;;7.10;99.90;;;;;;5031024;28;20194;-54
2023/12/18 04:32:47;;;;;;;11.13;9.57;;;7.20;99.90;;;;;;5029391;28;20214;-54
2023/12/18 04:35:13;;;;;;;13.27;10.97;;;7.30;99.90;;;;;;5027080;28;20879;-54
2023/12/18 04:37:38;;;;;;;12.80;9.63;;;7.20;99.90;;;;;;5031538;28;20276;-54
2023/12/18 04:40:04;;;;;;;13.77;10.43;;;7.20;99.90;;;;;;5027946;28;20564;-56
2023/12/18 04:42:30;;;;;;;13.27;9.80;;;7.10;99.90;;;;;;5030120;28;20212;-57
2023/12/18 04:44:57;;;;;;;17.20;11.17;;;7.10;99.90;;;;;;5027787;28;20209;-54
2023/12/18 04:47:22;;;;;;;17.17;11.20;;;7.10;99.90;;;;;;5031608;28;20207;-55
2023/12/18 04:49:48;;;;;;;13.67;11.40;;;7.10;99.90;;;;;;5031760;28;20195;-54
2023/12/18 04:52:13;;;;;;;19.57;10.17;;;7.00;99.90;;;;;;5030578;28;20221;-54
2023/12/18 04:54:39;;;;;;;15.50;10.87;;;7.00;99.90;;;;;;5031720;28;20650;-54
2023/12/18 04:57:05;;;;;;;14.60;10.90;;;7.00;99.90;;;;;;5031345;28;20210;-54
2023/12/18 04:59:30;;;;;;;14.50;11.63;;;7.00;99.90;;;;;;5028296;28;20661;-54
2023/12/18 05:01:56;;;;;;;13.03;11.23;;;7.00;99.90;;;;;;5026889;28;20199;-55
2023/12/18 05:04:23;;;;;;;16.23;11.50;;;7.10;99.90;;;;;;5030379;28;20591;-53
2023/12/18 05:06:49;;;;;;;16.27;11.43;;;7.10;99.90;;;;;;5031270;28;20230;-53
2023/12/18 05:09:15;;;;;;;13.37;11.57;;;7.10;99.90;;;;;;5010058;28;20210;-55
2023/12/18 05:11:41;;;;;;;17.93;12.17;;;7.10;99.90;;;;;;5027883;28;20201;-55
2023/12/18 05:14:06;;;;;;;12.30;10.30;;;7.10;99.90;;;;;;5032989;28;20210;-55
2023/12/18 05:16:32;;;;;;;12.67;10.57;;;7.20;99.90;;;;;;5031367;28;20257;-63
2023/12/18 05:18:57;;;;;;;19.77;12.70;;;7.10;99.90;;;;;;5031567;28;20203;-54
2023/12/18 05:21:23;;;;;;;14.63;11.37;;;7.00;99.90;;;;;;5030509;28;20274;-55
2023/12/18 05:23:49;;;;;;;13.20;11.83;;;7.00;99.90;;;;;;5026922;28;20202;-55
2023/12/18 05:26:15;;;;;;;16.27;13.30;;;7.00;99.90;;;;;;5030979;28;20210;-55
2023/12/18 05:28:40;;;;;;;12.60;11.27;;;6.90;99.90;;;;;;5030372;28;20203;-55
2023/12/18 05:31:10;;;;;;;14.30;11.40;;;6.90;99.90;;;;;;5025696;28;20199;-54
2023/12/18 05:33:35;;;;;;;18.80;11.70;;;6.90;99.90;;;;;;5027565;28;20260;-54
2023/12/18 05:36:01;;;;;;;15.60;11.67;;;6.90;99.90;;;;;;5024321;28;20206;-54
2023/12/18 05:38:26;;;;;;;14.70;12.53;;;7.00;99.90;;;;;;5030771;28;20249;-55
2023/12/18 05:40:51;;;;;;;18.13;12.50;;;7.00;99.90;;;;;;5030142;28;20195;-54
2023/12/18 05:43:17;;;;;;;14.13;11.17;;;7.00;99.90;;;;;;5032274;28;20555;-54
2023/12/18 05:45:42;;;;;;;14.03;11.20;;;7.10;99.90;;;;;;5032890;28;20198;-54
2023/12/18 05:48:08;;;;;;;17.40;13.57;;;7.00;99.90;;;;;;5035093;28;20902;-55
2023/12/18 05:50:33;;;;;;;15.10;13.03;;;7.00;99.90;;;;;;5034445;28;20514;-56
2023/12/18 05:52:59;;;;;;;15.03;13.07;;;7.00;99.90;;;;;;5035101;28;20248;-54
2023/12/18 05:55:24;;;;;;;16.90;12.20;;;7.00;99.90;;;;;;5034560;28;20254;-55
2023/12/18 05:57:50;;;;;;;15.80;12.07;;;7.00;99.90;;;;;;5017004;28;20190;-55
2023/12/18 06:00:19;;;;;;;17.03;12.50;;;7.00;99.90;;;;;;5017126;28;20286;-54
2023/12/18 06:02:45;;;;;;;20.83;12.13;;;7.00;99.90;;;;;;5015257;28;20802;-54
2023/12/18 06:05:10;;;;;;;17.10;12.87;;;7.00;99.90;;;;;;5018818;28;20225;-54
2023/12/18 06:07:36;;;;;;;15.90;12.57;;;7.00;99.90;;;;;;5012646;28;20217;-54
2023/12/18 06:10:01;;;;;;;15.77;11.00;;;7.00;99.90;;;;;;5030761;28;20209;-54
2023/12/18 06:12:26;;;;;;;16.23;10.87;;;7.00;99.90;;;;;;5033181;28;20195;-54
2023/12/18 06:14:52;;;;;;;16.17;11.80;;;7.00;99.90;;;;;;5016658;28;20230;-54
2023/12/18 06:17:17;;;;;;;16.93;11.70;;;7.00;99.90;;;;;;5027991;28;20294;-54
2023/12/18 06:19:44;;;;;;;17.70;11.93;;;7.00;99.90;;;;;;5035758;28;20203;-54
2023/12/18 06:22:11;;;;;;;12.47;11.17;;;7.00;99.90;;;;;;5029964;28;20203;-54
2023/12/18 06:24:41;;;;;;;12.93;10.97;;;7.00;99.90;;;;;;5029027;28;20198;-54
2023/12/18 06:27:07;;;;;;;15.13;12.03;;;7.00;99.90;;;;;;5015014;28;20281;-54
2023/12/18 06:29:32;;;;;;;16.07;11.37;;;7.10;99.90;;;;;;5032224;28;20285;-54
2023/12/18 06:31:58;;;;;;;17.97;10.93;;;7.00;99.90;;;;;;5031333;28;20630;-54
2023/12/18 06:34:23;;;;;;;14.13;11.03;;;7.20;99.90;;;;;;5034231;28;20219;-53
2023/12/18 06:36:49;;;;;;;15.03;10.20;;;7.20;99.90;;;;;;5025996;28;20621;-54
2023/12/18 06:39:15;;;;;;;14.53;10.83;;;7.20;99.90;;;;;;5034529;28;20195;-55
2023/12/18 06:41:40;;;;;;;17.10;12.00;;;7.20;99.90;;;;;;5014773;28;20968;-55
2023/12/18 06:44:06;;;;;;;12.73;10.70;;;7.10;99.90;;;;;;5030256;28;20195;-53
2023/12/18 06:46:33;;;;;;;14.27;10.97;;;7.30;99.90;;;;;;5032934;28;20260;-54
2023/12/18 06:48:59;;;;;;;14.97;11.47;;;7.50;99.90;;;;;;5029957;28;20213;-54
2023/12/18 06:51:25;;;;;;;24.03;11.57;;;7.40;99.90;;;;;;5032989;28;20203;-54
2023/12/18 06:53:50;;;;;;;15.13;11.37;;;7.20;99.90;;;;;;5036144;28;20199;-55
2023/12/18 06:56:16;;;;;;;14.13;10.30;;;7.10;99.90;;;;;;5015560;28;20227;-54
2023/12/18 06:58:42;;;;;;;12.67;11.10;;;7.10;99.90;;;;;;5029811;28;20923;-54
2023/12/18 07:01:07;;;;;;;13.50;11.10;;;7.00;99.90;;;;;;5026427;28;20203;-54
2023/12/18 07:03:33;;;;;;;11.37;10.20;;;7.00;99.90;;;;;;5028907;28;20195;-54
2023/12/18 07:05:58;;;;;;;17.87;12.30;;;7.00;99.90;;;;;;5028675;28;20207;-54
2023/12/18 07:08:24;;;;;;;15.20;10.83;;;7.10;99.90;;;;;;5033075;28;20333;-54
2023/12/18 07:10:49;;;;;;;18.67;11.63;;;7.00;99.90;;;;;;5035239;28;20465;-55
2023/12/18 07:13:15;;;;;;;14.43;10.03;;;7.00;99.90;;;;;;5033744;28;20370;-54
2023/12/18 07:15:41;;;;;;;15.20;11.80;;;7.00;99.90;;;;;;5033069;28;20238;-54
2023/12/18 07:18:07;;;;;;;14.20;11.87;;;7.00;99.90;;;;;;5033442;28;20341;-54
2023/12/18 07:20:33;;;;;;;12.53;10.10;;;7.10;99.90;;;;;;5031584;28;20237;-58
2023/12/18 07:22:59;;;;;;;15.83;11.27;;;7.20;99.90;;;;;;5017385;28;20210;-55
2023/12/18 07:25:24;;;;;;;16.67;10.33;;;7.30;99.90;;;;;;5032565;28;20231;-55
2023/12/18 07:27:51;;;;;;;14.70;10.80;;;7.20;99.90;;;;;;5013296;28;20198;-55
2023/12/18 07:30:16;;;;;;;15.30;10.67;;;7.20;99.90;;;;;;5014703;28;20198;-53
2023/12/18 07:32:42;;;;;;;18.23;11.73;;;7.30;99.90;;;;;;5031172;28;20210;-54
2023/12/18 07:35:07;;;;;;;15.20;11.47;;;7.10;99.90;;;;;;5029374;28;20223;-54
2023/12/18 07:37:33;;;;;;;16.50;11.10;;;7.20;99.90;;;;;;5033449;28;20199;-55
2023/12/18 07:40:00;;;;;;;14.70;12.53;;;7.10;99.90;;;;;;5031490;28;20192;-61
2023/12/18 07:42:26;;;;;;;14.60;11.13;;;7.20;99.90;;;;;;5028418;28;20503;-55
2023/12/18 07:44:52;;;;;;;13.33;10.30;;;7.30;99.90;;;;;;5025465;28;20194;-55
2023/12/18 07:47:17;;;;;;;14.23;10.67;;;7.30;99.90;;;;;;5029111;28;20198;-53
2023/12/18 07:49:43;;;;;;;14.77;10.63;;;7.30;99.90;;;;;;5026871;28;20974;-56
2023/12/18 07:52:08;;;;;;;12.10;10.87;;;7.40;99.90;;;;;;5029772;28;20805;-53
2023/12/18 07:54:34;;;;;;;15.47;10.07;;;7.40;99.90;;;;;;5029494;28;20300;-54
2023/12/18 07:56:59;;;;;;;12.20;10.10;;;7.30;99.90;;;;;;5028494;28;20238;-59
2023/12/18 07:59:25;;;;;;;11.77;9.80;;;7.40;99.90;;;;;;5023806;28;20281;-53
2023/12/18 08:01:51;;;;;;;11.47;10.27;;;7.50;99.90;;;;;;5010846;28;20203;-54
2023/12/18 08:04:16;;;;;;;10.93;9.83;;;7.40;99.90;;;;;;5031042;28;20696;-53
2023/12/18 08:06:41;;;;;;;11.87;10.03;;;7.60;99.90;;;;;;5032122;28;20201;-54
2023/12/18 08:09:07;;;;;;;11.77;9.83;;;7.70;99.90;;;;;;5032029;28;20202;-62
2023/12/18 08:11:34;;;;;;;13.17;9.67;;;7.70;99.90;;;;;;5014984;28;20221;-54
2023/12/18 08:13:59;;;;;;;15.27;9.53;;;7.60;99.90;;;;;;5024085;28;20206;-55
2023/12/18 08:16:25;;;;;;;13.13;9.20;;;7.50;99.90;;;;;;5005757;28;20311;-56
2023/12/18 08:18:50;;;;;;;11.63;9.07;;;7.50;99.90;;;;;;5006133;28;20285;-55
2023/12/18 08:21:16;;;;;;;11.67;9.80;;;7.50;99.90;;;;;;5010892;28;20835;-55
2023/12/18 08:23:42;;;;;;;11.40;8.97;;;7.70;99.90;;;;;;5030221;28;20205;-54
2023/12/18 08:26:11;;;;;;;10.80;9.70;;;7.80;99.90;;;;;;5028471;28;20608;-55
2023/12/18 08:28:46;;;;;;;10.30;8.67;;;7.60;99.90;;;;;;5029162;28;20191;-53
2023/12/18 08:31:12;;;;;;;12.60;9.90;;;7.70;99.90;;;;;;5026868;28;20201;-57
2023/12/18 08:33:40;;;;;;;13.60;9.40;;;7.60;99.90;;;;;;5027531;28;20214;-54
2023/12/18 08:36:06;;;;;;;9.13;8.23;;;7.70;99.90;;;;;;5025009;28;20219;-61
2023/12/18 08:38:32;;;;;;;11.67;10.37;;;7.60;99.90;;;;;;5009219;28;20654;-60
2023/12/18 08:40:58;;;;;;;9.87;8.40;;;7.50;99.90;;;;;;5010099;28;20198;-55
2023/12/18 08:43:23;;;;;;;12.17;9.07;;;7.60;99.90;;;;;;5028451;28;20195;-54
2023/12/18 08:45:49;;;;;;;13.47;9.10;;;7.70;99.90;;;;;;5030669;28;20198;-62
2023/12/18 08:48:15;;;;;;;12.03;8.43;;;7.70;99.90;;;;;;5028175;28;20214;-55
2023/12/18 08:50:41;;;;;;;8.90;8.00;;;8.00;99.90;;;;;;5012083;28;20194;-55
2023/12/18 08:53:07;;;;;;;10.43;7.97;;;8.00;99.90;;;;;;5030273;28;20206;-55
2023/12/18 08:55:32;;;;;;;10.70;9.10;;;8.10;99.90;;;;;;5010793;28;20214;-55
2023/12/18 08:57:58;;;;;;;10.87;9.73;;;8.10;99.90;;;;;;5029805;28;20210;-54
2023/12/18 09:00:24;;;;;;;10.77;8.70;;;8.00;99.90;;;;;;5030322;28;20191;-55
2023/12/18 09:02:50;;;;;;;9.70;8.67;;;8.00;99.90;;;;;;5028606;28;20258;-54
2023/12/18 09:05:15;;;;;;;8.40;7.23;;;8.10;99.90;;;;;;5025651;28;20213;-61
2023/12/18 09:07:41;;;;;;;9.73;7.63;;;8.10;99.90;;;;;;5013209;28;20559;-63
2023/12/18 09:10:07;;;;;;;15.47;10.07;;;8.00;99.90;;;;;;5011076;28;20217;-61
2023/12/18 09:12:32;;;;;;;11.87;9.03;;;8.00;99.90;;;;;;5009955;28;20244;-53
2023/12/18 09:14:58;;;;;;;10.27;8.27;;;7.90;99.90;;;;;;5028245;28;20226;-54
2023/12/18 09:17:23;;;;;;;10.00;8.47;;;8.00;99.90;;;;;;5024214;28;20565;-54
2023/12/18 09:19:49;;;;;;;9.13;7.67;;;7.90;99.90;;;;;;5008602;28;20218;-56
2023/12/18 09:22:15;;;;;;;11.33;8.07;;;7.90;99.90;;;;;;5027545;28;20689;-54
2023/12/18 09:24:41;;;;;;;7.67;6.87;;;7.90;99.90;;;;;;5026179;28;20680;-53
2023/12/18 09:27:06;;;;;;;12.60;8.77;;;8.00;99.90;;;;;;5025263;28;20293;-53
2023/12/18 09:29:32;;;;;;;12.33;7.83;;;8.00;99.90;;;;;;5025587;28;20265;-53
2023/12/18 09:31:58;;;;;;;11.97;7.77;;;8.00;99.90;;;;;;5023370;28;20226;-54
2023/12/18 09:34:24;;;;;;;12.63;9.13;;;8.00;99.90;;;;;;5030583;28;20303;-54
2023/12/18 09:36:49;;;;;;;11.30;8.63;;;8.00;99.90;;;;;;5030000;28;20305;-55
2023/12/18 09:39:15;;;;;;;9.40;8.40;;;8.00;99.90;;;;;;5023754;28;20202;-61
2023/12/18 09:41:40;;;;;;;14.13;9.67;;;7.80;99.90;;;;;;5007240;28;20191;-61
2023/12/18 09:44:06;;;;;;;10.30;8.77;;;7.90;99.90;;;;;;5025393;28;20194;-60
2023/12/18 09:46:31;;;;;;;11.97;9.47;;;8.00;99.90;;;;;;5024061;28;20553;-63
2023/12/18 09:48:57;;;;;;;10.73;8.07;;;8.10;99.90;;;;;;5029729;28;20195;-64
2023/12/18 09:51:24;;;;;;;10.97;8.30;;;8.00;99.90;;;;;;5024712;28;20198;-63
2023/12/18 09:53:54;;;;;;;14.17;8.53;;;8.00;99.90;;;;;;5029819;28;20202;-54
2023/12/18 09:56:21;;;;;;;9.03;8.07;;;7.90;99.90;;;;;;5012980;28;20263;-59
2023/12/18 09:58:47;;;;;;;10.50;8.83;;;7.90;99.90;;;;;;5027876;28;20206;-61
2023/12/18 10:01:13;;;;;;;13.10;9.23;;;7.90;99.90;;;;;;5026771;28;20214;-56
2023/12/18 10:03:39;;;;;;;11.87;8.93;;;7.80;99.90;;;;;;5027577;28;20289;-54
2023/12/18 10:06:05;;;;;;;12.83;8.90;;;7.60;99.90;;;;;;5028470;28;20715;-55
2023/12/18 10:08:30;;;;;;;10.43;8.97;;;7.70;99.90;;;;;;5029788;28;20285;-54
2023/12/18 10:10:56;;;;;;;12.97;10.03;;;7.80;99.90;;;;;;5030856;28;20665;-54
2023/12/18 10:13:22;;;;;;;17.33;11.90;;;7.60;99.90;;;;;;5013150;28;20234;-54
2023/12/18 10:15:47;;;;;;;9.60;8.70;;;7.60;99.90;;;;;;5029649;28;20241;-59
2023/12/18 10:18:16;;;;;;;16.27;9.13;;;7.70;99.90;;;;;;5028992;28;20223;-58
2023/12/18 10:20:42;;;;;;;11.40;9.13;;;7.60;99.90;;;;;;5031234;28;20281;-65
2023/12/18 10:23:08;;;;;;;9.67;8.57;;;7.70;99.90;;;;;;5030549;28;20211;-59
2023/12/18 10:25:35;;;;;;;11.77;9.37;;;7.90;99.90;;;;;;5028606;28;20284;-54
2023/12/18 10:28:01;;;;;;;14.33;10.90;;;8.00;99.90;;;;;;5027789;28;20696;-64
2023/12/18 10:30:29;;;;;;;15.33;9.50;;;8.00;99.90;;;;;;5015772;28;20253;-60
2023/12/18 10:32:56;;;;;;;14.03;8.63;;;7.60;99.90;;;;;;5028668;28;20338;-54
2023/12/18 10:35:22;;;;;;;11.77;8.43;;;7.60;99.90;;;;;;5029389;28;20289;-53
2023/12/18 10:37:52;;;;;;;13.47;9.23;;;7.50;99.90;;;;;;5033485;28;20739;-52
2023/12/18 10:40:23;;;;;;;10.67;8.63;;;7.60;99.90;;;;;;5032226;28;20214;-51
2023/12/18 10:43:12;;;;;;;10.67;9.57;;;7.50;99.90;;;;;;5030326;28;20584;-53
2023/12/18 10:45:39;;;;;;;12.00;10.60;;;7.50;99.90;;;;;;5033405;28;20664;-55
2023/12/18 10:48:07;;;;;;;13.47;10.23;;;7.60;99.90;;;;;;5030750;28;20202;-54
2023/12/18 10:50:34;;;;;;;17.53;10.83;;;7.50;99.90;;;;;;5030175;28;20199;-52
2023/12/18 10:53:03;;;;;;;12.13;10.10;;;7.40;99.90;;;;;;5034048;28;20938;-57
2023/12/18 10:55:29;;;;;;;10.10;9.07;;;7.40;99.90;;;;;;5027438;28;20795;-61
2023/12/18 10:57:58;;;;;;;14.03;10.00;;;7.50;99.90;;;;;;5029341;28;20200;-61
2023/12/18 11:00:24;;;;;;;11.27;10.10;;;7.60;99.90;;;;;;5028273;28;20226;-63
2023/12/18 11:02:51;;;;;;;11.10;9.37;;;7.70;99.90;;;;;;5032539;28;20735;-54
2023/12/18 11:05:17;;;;;;;10.97;8.87;;;7.80;99.90;;;;;;5029803;28;20209;-54
2023/12/18 11:07:43;;;;;;;15.10;10.20;;;7.70;99.90;;;;;;5027997;28;20298;-54
2023/12/18 11:10:09;;;;;;;15.73;10.57;;;7.80;99.90;;;;;;5029447;28;20633;-54
2023/12/18 11:12:37;;;;;;;13.23;9.23;;;7.70;99.90;;;;;;5011637;28;20206;-54
2023/12/18 11:15:38;;;;;;;11.97;10.00;;;7.80;99.90;;;;;;5033478;28;20234;-54
2023/12/18 11:18:22;;;;;;;11.63;9.47;;;7.70;99.90;;;;;;5032539;28;20213;-54
2023/12/18 11:20:50;;;;;;;12.03;10.10;;;7.50;99.90;;;;;;5027670;28;20206;-54
2023/12/18 11:23:16;;;;;;;13.50;10.50;;;7.40;99.90;;;;;;5030039;28;20234;-55
2023/12/18 11:25:47;;;;;;;11.93;9.73;;;7.50;99.90;;;;;;5029051;28;20191;-54
2023/12/18 11:28:12;;;;;;;17.57;10.20;;;7.70;99.90;;;;;;5030966;28;20194;-55
2023/12/18 11:30:43;;;;;;;11.77;10.07;;;7.80;99.90;;;;;;5010583;28;20205;-54
2023/12/18 11:33:10;;;;;;;12.13;10.17;;;7.80;99.90;;;;;;5029172;28;20198;-55
2023/12/18 11:35:37;;;;;;;15.13;10.80;;;7.70;99.90;;;;;;5015055;28;20301;-56
2023/12/18 11:38:11;;;;;;;15.10;11.20;;;7.50;99.90;;;;;;5028017;28;20241;-62
2023/12/18 11:40:40;;;;;;;15.73;10.03;;;7.50;99.90;;;;;;5028368;28;20344;-63
2023/12/18 11:43:07;;;;;;;13.50;11.60;;;7.50;99.90;;;;;;5025873;28;20961;-63
2023/12/18 11:45:36;;;;;;;17.43;10.90;;;7.60;99.90;;;;;;5026482;28;20205;-63
2023/12/18 11:48:03;;;;;;;13.33;10.40;;;7.70;99.90;;;;;;5013824;28;20687;-54
2023/12/18 11:50:37;;;;;;;16.53;12.17;;;7.70;99.90;;;;;;5028409;28;20225;-54
2023/12/18 11:53:26;;;;;;;11.93;10.33;;;7.70;99.90;;;;;;5014414;28;20207;-54
2023/12/18 11:55:53;;;;;;;13.57;11.10;;;7.80;99.90;;;;;;5024284;28;20803;-54
2023/12/18 11:58:24;;;;;;;13.93;11.90;;;7.80;99.90;;;;;;5029340;28;20215;-55
2023/12/18 12:00:50;;;;;;;16.53;10.90;;;7.90;99.90;;;;;;5027166;28;20283;-54
2023/12/18 12:03:17;;;;;;;13.83;11.60;;;7.80;99.90;;;;;;5024790;28;20256;-54
2023/12/18 12:05:43;;;;;;;13.70;11.47;;;7.70;99.90;;;;;;5030163;28;20772;-54
2023/12/18 12:08:09;;;;;;;15.07;12.20;;;7.90;99.90;;;;;;5031576;28;21143;-54
2023/12/18 12:10:43;;;;;;;11.93;10.73;;;7.90;99.90;;;;;;5013622;28;20202;-54
2023/12/18 12:13:18;;;;;;;16.30;11.53;;;7.80;99.90;;;;;;5030330;28;20256;-54
2023/12/18 12:15:55;;;;;;;16.53;11.60;;;7.80;99.90;;;;;;5031185;28;20235;-55
2023/12/18 12:18:21;;;;;;;14.90;10.50;;;7.70;99.90;;;;;;5030000;28;20256;-54
2023/12/18 12:20:47;;;;;;;16.57;11.13;;;8.00;99.90;;;;;;5028012;28;20786;-54
2023/12/18 12:23:12;;;;;;;14.73;11.20;;;8.00;99.90;;;;;;5032231;28;20190;-55
2023/12/18 12:25:39;;;;;;;13.40;10.70;;;8.00;99.90;;;;;;5032168;28;20419;-55
2023/12/18 12:28:04;;;;;;;13.57;10.63;;;7.90;99.90;;;;;;5031735;28;20199;-54
2023/12/18 12:30:30;;;;;;;14.60;11.43;;;8.00;99.90;;;;;;5028577;28;20230;-54
2023/12/18 12:32:55;;;;;;;14.37;10.97;;;7.90;99.90;;;;;;5009751;28;20198;-54
2023/12/18 12:35:21;;;;;;;13.50;10.97;;;7.90;99.90;;;;;;5008307;28;20222;-54
2023/12/18 12:37:46;;;;;;;14.27;10.53;;;8.20;99.90;;;;;;5026139;28;20205;-55
2023/12/18 12:40:12;;;;;;;13.87;10.30;;;8.20;99.90;;;;;;5029430;28;20199;-54